Hlavní strana
METAR-TAF:

METAR-TAF

Letiště :

Udine, Itálie

zeměpisná šířka: 45-59N, zeměpisná délka: 013-02E, výška: 51 m

Aktuální stav počasí

Zpráva byla vytvořena před 7 hodinami a 58 minutami, v 14:55 UTC
Teplota 14°C
Vlhkost vzduchu 51%
Tlak 1026 hPa
Viditelnost: 9000 m

METAR: LIPI 211455Z /////KT 9000 NSC 14/04 Q1026 RMK SKC VIS MIN 5000S WIND THR06 21003KT WIND THR24 22004KT WHT

Čas: 23:53 (22:53 UTC)

Předpověď počasí

Zpráva byla vytvořena před 8 hodinami a 53 minutami, v 14:00 UTC
Předpověď platná od 21 v 15 UTC do 21 v 24 UTC
vítr z různých směrů 3 kt
Viditelnost: 8000 m
Dočasný
od 21 v 15 UTC do 21 v 18 UTC
Viditelnost: 5000 m
kouřmo
Změna
od 21 v 18 UTC do 21 v 20 UTC
Viditelnost: 2000 m
Polojasno ve výšce 1000 ft
kouřmo

TAF: LIPI 211400Z 2115/2124 VRB03KT 8000 NSC TEMPO 2115/2118 5000 BR BECMG 2118/2120 2000 BR SCT010

Stav a předpovědi počasí z více než 4 000 letišť (zprávy METAR a TAF).

Červené a žluté tečky na mapě představují dostupné meteorologické stanice.

Když kurzor umístíte na tečku, zobrazí se název stanice.

Pak kliknutím zobrazíte stav a předpověď počasí.

Chcete-li změnit mapu, kliknutím na zelené tlačítko se znaménkem +mapu přiblížíte, kliknutím na zelené tlačítko se znaménkem – mapu oddálíte a kliknutím na zelené šipky přejdete na sousední mapy.


METAR-TAF: